sensor_id;sensor_type;location;lat;lon;timestamp;pressure;altitude;pressure_sealevel;temperature;humidity
63622;BME280;49770;47.544;19.074;2023-04-21T04:13:29;100294.97;;;8.11;100.00
63622;BME280;49770;47.544;19.074;2023-04-21T04:16:33;100293.25;;;8.10;100.00
63622;BME280;49770;47.544;19.074;2023-04-21T04:19:36;100299.78;;;8.22;100.00
63622;BME280;49770;47.544;19.074;2023-04-21T04:22:40;100306.00;;;8.21;100.00
63622;BME280;49770;47.544;19.074;2023-04-21T04:25:43;100305.59;;;8.30;100.00
63622;BME280;49770;47.544;19.074;2023-04-21T04:28:45;100312.78;;;8.49;99.75
63622;BME280;49770;47.544;19.074;2023-04-21T04:31:49;100315.81;;;8.62;97.72
63622;BME280;49770;47.544;19.074;2023-04-21T04:34:53;100313.69;;;8.70;98.73
63622;BME280;49770;47.544;19.074;2023-04-21T04:37:57;100318.66;;;8.78;98.41
63622;BME280;49770;47.544;19.074;2023-04-21T04:41:00;100318.06;;;8.92;93.63
63622;BME280;49770;47.544;19.074;2023-04-21T04:44:04;100311.34;;;9.04;93.49
63622;BME280;49770;47.544;19.074;2023-04-21T04:47:07;100321.66;;;9.10;93.81
63622;BME280;49770;47.544;19.074;2023-04-21T04:50:10;100325.69;;;9.19;91.18
63622;BME280;49770;47.544;19.074;2023-04-21T04:53:13;100326.78;;;9.34;89.82
63622;BME280;49770;47.544;19.074;2023-04-21T04:56:15;100326.44;;;9.42;89.73
63622;BME280;49770;47.544;19.074;2023-04-21T04:59:18;100321.78;;;9.47;88.80
63622;BME280;49770;47.544;19.074;2023-04-21T05:02:21;100313.41;;;9.56;88.83
63622;BME280;49770;47.544;19.074;2023-04-21T05:05:26;100319.56;;;9.76;87.16
63622;BME280;49770;47.544;19.074;2023-04-21T05:08:28;100318.84;;;9.92;85.84
63622;BME280;49770;47.544;19.074;2023-04-21T05:11:31;100316.16;;;10.11;84.63
63622;BME280;49770;47.544;19.074;2023-04-21T05:14:34;100319.13;;;10.22;84.07
63622;BME280;49770;47.544;19.074;2023-04-21T05:17:37;100318.34;;;10.57;81.28
63622;BME280;49770;47.544;19.074;2023-04-21T05:20:40;100319.91;;;11.30;77.69
63622;BME280;49770;47.544;19.074;2023-04-21T05:23:43;100318.13;;;13.03;67.34
63622;BME280;49770;47.544;19.074;2023-04-21T05:26:46;100319.84;;;14.05;61.38
63622;BME280;49770;47.544;19.074;2023-04-21T05:29:49;100321.78;;;14.43;58.67
63622;BME280;49770;47.544;19.074;2023-04-21T05:32:52;100321.69;;;14.45;58.97
63622;BME280;49770;47.544;19.074;2023-04-21T05:35:55;100326.22;;;14.70;57.14
63622;BME280;49770;47.544;19.074;2023-04-21T05:38:57;100326.41;;;14.81;56.02
63622;BME280;49770;47.544;19.074;2023-04-21T05:42:00;100329.09;;;15.58;54.26
63622;BME280;49770;47.544;19.074;2023-04-21T05:45:04;100328.19;;;15.07;54.53
63622;BME280;49770;47.544;19.074;2023-04-21T05:48:07;100327.22;;;15.97;51.67
63622;BME280;49770;47.544;19.074;2023-04-21T05:51:10;100331.00;;;16.91;48.71
63622;BME280;49770;47.544;19.074;2023-04-21T05:54:14;100336.31;;;17.61;45.71
63622;BME280;49770;47.544;19.074;2023-04-21T05:57:18;100336.63;;;18.13;43.94
63622;BME280;49770;47.544;19.074;2023-04-21T06:00:21;100338.59;;;18.32;43.11
63622;BME280;49770;47.544;19.074;2023-04-21T06:03:23;100334.63;;;18.04;43.25
63622;BME280;49770;47.544;19.074;2023-04-21T06:06:27;100338.00;;;18.62;41.55
63622;BME280;49770;47.544;19.074;2023-04-21T06:09:30;100343.00;;;17.67;42.06
63622;BME280;49770;47.544;19.074;2023-04-21T06:12:32;100338.72;;;17.75;41.81
63622;BME280;49770;47.544;19.074;2023-04-21T06:15:35;100341.47;;;18.95;40.80
63622;BME280;49770;47.544;19.074;2023-04-21T06:18:38;100342.13;;;19.30;39.15
63622;BME280;49770;47.544;19.074;2023-04-21T06:21:41;100341.91;;;19.43;38.27
63622;BME280;49770;47.544;19.074;2023-04-21T06:24:43;100337.47;;;19.73;37.39
63622;BME280;49770;47.544;19.074;2023-04-21T06:27:46;100343.81;;;19.62;37.24
63622;BME280;49770;47.544;19.074;2023-04-21T06:30:49;100336.59;;;20.03;35.62
63622;BME280;49770;47.544;19.074;2023-04-21T06:33:52;100342.56;;;20.56;34.95
63622;BME280;49770;47.544;19.074;2023-04-21T06:36:55;100343.00;;;20.62;34.91
63622;BME280;49770;47.544;19.074;2023-04-21T06:39:58;100338.59;;;20.90;34.24
63622;BME280;49770;47.544;19.074;2023-04-21T06:43:00;100328.00;;;21.26;33.13
63622;BME280;49770;47.544;19.074;2023-04-21T06:46:03;100327.22;;;22.73;34.50
63622;BME280;49770;47.544;19.074;2023-04-21T06:49:07;100339.41;;;23.30;32.04
63622;BME280;49770;47.544;19.074;2023-04-21T06:52:10;100337.75;;;24.32;29.75
63622;BME280;49770;47.544;19.074;2023-04-21T06:55:13;100334.50;;;23.60;33.16
63622;BME280;49770;47.544;19.074;2023-04-21T06:58:16;100331.19;;;23.75;31.11
63622;BME280;49770;47.544;19.074;2023-04-21T07:01:22;100338.63;;;23.81;29.11
63622;BME280;49770;47.544;19.074;2023-04-21T07:04:28;100335.44;;;22.89;30.52
63622;BME280;49770;47.544;19.074;2023-04-21T07:07:33;100325.00;;;22.95;30.96
63622;BME280;49770;47.544;19.074;2023-04-21T07:10:36;100339.56;;;22.03;36.09
63622;BME280;49770;47.544;19.074;2023-04-21T07:13:39;100327.69;;;20.42;38.27
63622;BME280;49770;47.544;19.074;2023-04-21T07:16:42;100320.75;;;20.59;33.73
63622;BME280;49770;47.544;19.074;2023-04-21T07:19:44;100323.50;;;21.45;33.64
63622;BME280;49770;47.544;19.074;2023-04-21T07:22:47;100334.16;;;22.03;32.31
63622;BME280;49770;47.544;19.074;2023-04-21T07:25:50;100325.19;;;21.46;32.76
63622;BME280;49770;47.544;19.074;2023-04-21T07:28:54;100325.37;;;20.67;34.28
63622;BME280;49770;47.544;19.074;2023-04-21T07:31:59;100320.16;;;20.06;35.71
63622;BME280;49770;47.544;19.074;2023-04-21T07:35:03;100322.84;;;20.95;35.05
63622;BME280;49770;47.544;19.074;2023-04-21T07:38:05;100316.19;;;20.60;35.35
63622;BME280;49770;47.544;19.074;2023-04-21T07:41:11;100312.97;;;21.52;33.54
63622;BME280;49770;47.544;19.074;2023-04-21T07:44:14;100317.47;;;20.76;34.92
63622;BME280;49770;47.544;19.074;2023-04-21T07:47:17;100319.16;;;20.77;35.16
63622;BME280;49770;47.544;19.074;2023-04-21T07:50:19;100318.28;;;20.96;34.77
63622;BME280;49770;47.544;19.074;2023-04-21T07:53:22;100316.56;;;20.95;34.23
63622;BME280;49770;47.544;19.074;2023-04-21T07:56:25;100319.31;;;20.45;34.46
63622;BME280;49770;47.544;19.074;2023-04-21T07:59:28;100315.09;;;21.48;32.85
63622;BME280;49770;47.544;19.074;2023-04-21T08:02:31;100322.37;;;21.76;32.24
63622;BME280;49770;47.544;19.074;2023-04-21T08:05:34;100315.34;;;22.11;32.57
63622;BME280;49770;47.544;19.074;2023-04-21T08:08:42;100320.12;;;22.17;31.12
63622;BME280;49770;47.544;19.074;2023-04-21T08:11:45;100306.81;;;21.32;32.31
63622;BME280;49770;47.544;19.074;2023-04-21T08:14:48;100314.87;;;21.70;31.94
63622;BME280;49770;47.544;19.074;2023-04-21T08:17:51;100306.19;;;22.85;30.65
63622;BME280;49770;47.544;19.074;2023-04-21T08:20:54;100309.53;;;22.06;32.21
63622;BME280;49770;47.544;19.074;2023-04-21T08:23:59;100315.44;;;20.97;32.51
63622;BME280;49770;47.544;19.074;2023-04-21T08:27:03;100308.00;;;21.47;31.58
63622;BME280;49770;47.544;19.074;2023-04-21T08:30:06;100318.66;;;22.23;30.97
63622;BME280;49770;47.544;19.074;2023-04-21T08:33:09;100314.72;;;22.98;29.37
63622;BME280;49770;47.544;19.074;2023-04-21T08:36:15;100311.72;;;23.79;28.93
63622;BME280;49770;47.544;19.074;2023-04-21T08:39:31;100313.53;;;22.74;29.25
63622;BME280;49770;47.544;19.074;2023-04-21T08:42:34;100303.97;;;23.07;28.88
63622;BME280;49770;47.544;19.074;2023-04-21T08:45:38;100312.78;;;22.10;29.43
63622;BME280;49770;47.544;19.074;2023-04-21T08:48:42;100312.56;;;22.57;30.62
63622;BME280;49770;47.544;19.074;2023-04-21T08:51:45;100304.38;;;22.13;28.84
63622;BME280;49770;47.544;19.074;2023-04-21T08:54:49;100299.97;;;22.93;29.43
63622;BME280;49770;47.544;19.074;2023-04-21T08:57:54;100304.87;;;22.71;28.78
63622;BME280;49770;47.544;19.074;2023-04-21T09:00:57;100297.63;;;22.71;28.81
63622;BME280;49770;47.544;19.074;2023-04-21T09:04:16;100294.87;;;23.16;28.52
63622;BME280;49770;47.544;19.074;2023-04-21T09:07:35;100296.16;;;22.77;29.09
63622;BME280;49770;47.544;19.074;2023-04-21T09:10:46;100299.53;;;23.32;28.24
63622;BME280;49770;47.544;19.074;2023-04-21T09:13:49;100291.19;;;22.64;28.77
63622;BME280;49770;47.544;19.074;2023-04-21T09:16:59;100293.16;;;21.61;30.23
63622;BME280;49770;47.544;19.074;2023-04-21T09:20:14;100290.34;;;20.97;31.02
63622;BME280;49770;47.544;19.074;2023-04-21T09:23:19;100292.56;;;21.67;30.63
63622;BME280;49770;47.544;19.074;2023-04-21T09:26:24;100290.59;;;23.05;28.98
63622;BME280;49770;47.544;19.074;2023-04-21T09:29:29;100283.63;;;21.95;30.25
63622;BME280;49770;47.544;19.074;2023-04-21T09:32:39;100276.75;;;22.01;30.49
63622;BME280;49770;47.544;19.074;2023-04-21T09:35:42;100271.13;;;22.30;30.81
63622;BME280;49770;47.544;19.074;2023-04-21T09:39:03;100273.56;;;22.86;29.02
63622;BME280;49770;47.544;19.074;2023-04-21T09:42:09;100269.88;;;21.88;29.83
63622;BME280;49770;47.544;19.074;2023-04-21T09:45:13;100268.00;;;22.43;30.47
63622;BME280;49770;47.544;19.074;2023-04-21T09:48:19;100266.72;;;23.00;29.24
63622;BME280;49770;47.544;19.074;2023-04-21T09:51:24;100263.56;;;22.79;29.18
63622;BME280;49770;47.544;19.074;2023-04-21T09:54:50;100252.22;;;21.94;30.51
63622;BME280;49770;47.544;19.074;2023-04-21T09:57:58;100253.38;;;21.07;31.19
63622;BME280;49770;47.544;19.074;2023-04-21T10:01:02;100256.84;;;21.84;31.14
63622;BME280;49770;47.544;19.074;2023-04-21T10:04:06;100248.59;;;22.93;29.58
63622;BME280;49770;47.544;19.074;2023-04-21T10:07:10;100253.78;;;20.84;31.35
63622;BME280;49770;47.544;19.074;2023-04-21T10:13:26;100246.12;;;24.19;27.27
63622;BME280;49770;47.544;19.074;2023-04-21T10:16:29;100237.37;;;22.79;28.54
63622;BME280;49770;47.544;19.074;2023-04-21T10:19:33;100239.31;;;22.69;29.60
63622;BME280;49770;47.544;19.074;2023-04-21T10:22:41;100236.72;;;21.78;31.07
63622;BME280;49770;47.544;19.074;2023-04-21T10:25:47;100237.47;;;21.88;31.10
63622;BME280;49770;47.544;19.074;2023-04-21T10:29:05;100229.22;;;21.44;32.06
63622;BME280;49770;47.544;19.074;2023-04-21T10:32:08;100236.13;;;21.28;31.89
63622;BME280;49770;47.544;19.074;2023-04-21T10:35:15;100230.44;;;20.26;33.65
63622;BME280;49770;47.544;19.074;2023-04-21T10:38:40;100234.44;;;20.89;32.58
63622;BME280;49770;47.544;19.074;2023-04-21T10:41:43;100224.06;;;23.97;28.15
63622;BME280;49770;47.544;19.074;2023-04-21T10:44:52;100228.81;;;26.82;24.50
63622;BME280;49770;47.544;19.074;2023-04-21T10:47:58;100231.03;;;26.48;24.92
63622;BME280;49770;47.544;19.074;2023-04-21T10:51:03;100216.03;;;26.37;25.44
63622;BME280;49770;47.544;19.074;2023-04-21T10:54:06;100216.50;;;26.41;25.58
63622;BME280;49770;47.544;19.074;2023-04-21T10:57:11;100208.31;;;24.59;27.52
63622;BME280;49770;47.544;19.074;2023-04-21T11:00:16;100211.38;;;24.64;26.89
63622;BME280;49770;47.544;19.074;2023-04-21T11:03:19;100196.78;;;23.82;29.76
63622;BME280;49770;47.544;19.074;2023-04-21T11:06:22;100204.97;;;24.23;27.30
63622;BME280;49770;47.544;19.074;2023-04-21T11:09:28;100197.00;;;22.59;28.91
63622;BME280;49770;47.544;19.074;2023-04-21T11:12:35;100188.03;;;21.88;29.98
63622;BME280;49770;47.544;19.074;2023-04-21T11:15:38;100195.31;;;21.59;30.53
63622;BME280;49770;47.544;19.074;2023-04-21T11:18:43;100198.31;;;21.10;31.51
63622;BME280;49770;47.544;19.074;2023-04-21T11:21:47;100189.97;;;20.55;31.17
63622;BME280;49770;47.544;19.074;2023-04-21T11:24:53;100187.22;;;20.17;32.43
63622;BME280;49770;47.544;19.074;2023-04-21T11:27:56;100182.81;;;19.87;32.86
63622;BME280;49770;47.544;19.074;2023-04-21T11:31:01;100191.47;;;19.71;32.91
63622;BME280;49770;47.544;19.074;2023-04-21T11:34:05;100189.47;;;19.73;33.69
63622;BME280;49770;47.544;19.074;2023-04-21T11:37:09;100184.88;;;19.24;34.32
63622;BME280;49770;47.544;19.074;2023-04-21T11:40:15;100179.59;;;19.12;34.27
63622;BME280;49770;47.544;19.074;2023-04-21T11:43:19;100186.19;;;19.39;35.29
63622;BME280;49770;47.544;19.074;2023-04-21T11:46:23;100183.66;;;19.87;35.45
63622;BME280;49770;47.544;19.074;2023-04-21T11:49:30;100182.25;;;19.63;34.70
63622;BME280;49770;47.544;19.074;2023-04-21T11:52:34;100179.69;;;19.42;36.13
63622;BME280;49770;47.544;19.074;2023-04-21T11:55:48;100165.56;;;20.09;35.48
63622;BME280;49770;47.544;19.074;2023-04-21T11:58:51;100176.16;;;20.78;33.87
63622;BME280;49770;47.544;19.074;2023-04-21T12:01:56;100173.66;;;21.69;33.62
63622;BME280;49770;47.544;19.074;2023-04-21T12:05:03;100173.31;;;22.27;32.38
63622;BME280;49770;47.544;19.074;2023-04-21T12:08:14;100171.25;;;22.20;30.67
63622;BME280;49770;47.544;19.074;2023-04-21T12:11:18;100165.44;;;21.24;31.32
63622;BME280;49770;47.544;19.074;2023-04-21T12:14:22;100166.00;;;21.28;31.55
63622;BME280;49770;47.544;19.074;2023-04-21T12:17:25;100167.28;;;20.96;31.43
63622;BME280;49770;47.544;19.074;2023-04-21T12:20:28;100165.19;;;21.18;32.22
63622;BME280;49770;47.544;19.074;2023-04-21T12:23:32;100163.44;;;21.26;32.10
63622;BME280;49770;47.544;19.074;2023-04-21T12:26:34;100157.19;;;19.73;33.32
63622;BME280;49770;47.544;19.074;2023-04-21T12:29:38;100157.03;;;19.55;34.42
63622;BME280;49770;47.544;19.074;2023-04-21T12:32:41;100155.59;;;19.31;34.53
63622;BME280;49770;47.544;19.074;2023-04-21T12:35:44;100149.94;;;19.34;34.99
63622;BME280;49770;47.544;19.074;2023-04-21T12:38:47;100148.25;;;19.43;34.66
63622;BME280;49770;47.544;19.074;2023-04-21T12:41:50;100151.50;;;19.46;34.41
63622;BME280;49770;47.544;19.074;2023-04-21T12:44:53;100150.44;;;19.08;35.44
63622;BME280;49770;47.544;19.074;2023-04-21T12:47:56;100147.50;;;19.21;34.92
63622;BME280;49770;47.544;19.074;2023-04-21T12:50:59;100149.03;;;19.13;35.00
63622;BME280;49770;47.544;19.074;2023-04-21T12:54:02;100144.28;;;19.37;34.68
63622;BME280;49770;47.544;19.074;2023-04-21T12:57:05;100144.28;;;19.47;35.43
63622;BME280;49770;47.544;19.074;2023-04-21T13:00:08;100140.03;;;19.44;34.19
63622;BME280;49770;47.544;19.074;2023-04-21T13:03:13;100140.47;;;19.49;34.51
63622;BME280;49770;47.544;19.074;2023-04-21T13:06:17;100135.78;;;19.32;34.28
63622;BME280;49770;47.544;19.074;2023-04-21T13:09:20;100140.47;;;19.49;34.57
63622;BME280;49770;47.544;19.074;2023-04-21T13:12:24;100137.78;;;19.30;34.17
63622;BME280;49770;47.544;19.074;2023-04-21T13:15:26;100137.88;;;19.18;34.59
63622;BME280;49770;47.544;19.074;2023-04-21T13:18:29;100134.53;;;18.95;34.97
63622;BME280;49770;47.544;19.074;2023-04-21T13:21:32;100136.78;;;18.90;35.24
63622;BME280;49770;47.544;19.074;2023-04-21T13:24:35;100138.28;;;19.13;35.09
63622;BME280;49770;47.544;19.074;2023-04-21T13:27:38;100130.84;;;18.86;36.40
63622;BME280;49770;47.544;19.074;2023-04-21T13:30:41;100128.31;;;18.94;36.66
63622;BME280;49770;47.544;19.074;2023-04-21T13:33:44;100132.97;;;19.33;36.77
63622;BME280;49770;47.544;19.074;2023-04-21T13:36:47;100122.47;;;19.60;35.62
63622;BME280;49770;47.544;19.074;2023-04-21T13:39:50;100129.59;;;19.00;36.61
63622;BME280;49770;47.544;19.074;2023-04-21T13:42:53;100127.88;;;18.89;36.03
63622;BME280;49770;47.544;19.074;2023-04-21T13:45:56;100125.56;;;19.16;36.00
63622;BME280;49770;47.544;19.074;2023-04-21T13:48:59;100124.75;;;19.45;36.20
63622;BME280;49770;47.544;19.074;2023-04-21T13:52:02;100115.94;;;19.23;36.51
63622;BME280;49770;47.544;19.074;2023-04-21T13:55:05;100122.31;;;19.12;36.30
63622;BME280;49770;47.544;19.074;2023-04-21T13:58:08;100111.16;;;18.85;35.45
63622;BME280;49770;47.544;19.074;2023-04-21T14:01:12;100112.56;;;19.21;36.38
63622;BME280;49770;47.544;19.074;2023-04-21T14:04:16;100113.38;;;19.11;35.30
63622;BME280;49770;47.544;19.074;2023-04-21T14:07:19;100104.06;;;19.16;36.21
63622;BME280;49770;47.544;19.074;2023-04-21T14:10:28;100101.94;;;19.49;36.38
63622;BME280;49770;47.544;19.074;2023-04-21T14:13:31;100091.47;;;19.65;35.48
63622;BME280;49770;47.544;19.074;2023-04-21T14:16:49;100092.06;;;19.30;35.15
63622;BME280;49770;47.544;19.074;2023-04-21T14:19:52;100093.31;;;18.75;36.29
63622;BME280;49770;47.544;19.074;2023-04-21T14:22:57;100088.41;;;18.80;36.58
63622;BME280;49770;47.544;19.074;2023-04-21T14:25:59;100081.25;;;19.20;36.10
63622;BME280;49770;47.544;19.074;2023-04-21T14:29:02;100084.25;;;19.26;35.73
63622;BME280;49770;47.544;19.074;2023-04-21T14:32:05;100079.56;;;18.68;37.28
63622;BME280;49770;47.544;19.074;2023-04-21T14:35:08;100076.22;;;18.76;36.95
63622;BME280;49770;47.544;19.074;2023-04-21T14:38:11;100082.62;;;18.94;36.65
63622;BME280;49770;47.544;19.074;2023-04-21T14:41:14;100081.37;;;18.98;35.99
63622;BME280;49770;47.544;19.074;2023-04-21T14:44:16;100078.75;;;18.67;35.78
63622;BME280;49770;47.544;19.074;2023-04-21T14:47:20;100077.03;;;18.66;36.27
63622;BME280;49770;47.544;19.074;2023-04-21T14:50:23;100076.69;;;18.50;36.81
63622;BME280;49770;47.544;19.074;2023-04-21T14:53:26;100075.19;;;18.67;36.34
63622;BME280;49770;47.544;19.074;2023-04-21T14:56:29;100073.25;;;18.38;36.63
63622;BME280;49770;47.544;19.074;2023-04-21T14:59:32;100069.06;;;18.55;37.27
63622;BME280;49770;47.544;19.074;2023-04-21T15:02:35;100071.06;;;18.63;36.21
63622;BME280;49770;47.544;19.074;2023-04-21T15:05:38;100067.09;;;18.57;36.60
63622;BME280;49770;47.544;19.074;2023-04-21T15:08:41;100072.13;;;18.40;35.55
63622;BME280;49770;47.544;19.074;2023-04-21T15:11:44;100064.44;;;18.26;36.20
63622;BME280;49770;47.544;19.074;2023-04-21T15:14:47;100061.25;;;18.42;35.76
63622;BME280;49770;47.544;19.074;2023-04-21T15:17:50;100049.94;;;18.38;35.95
63622;BME280;49770;47.544;19.074;2023-04-21T15:20:53;100047.88;;;18.52;36.15
63622;BME280;49770;47.544;19.074;2023-04-21T15:23:56;100045.84;;;18.95;35.21
63622;BME280;49770;47.544;19.074;2023-04-21T15:26:59;100048.25;;;18.88;35.69
63622;BME280;49770;47.544;19.074;2023-04-21T15:30:04;100048.13;;;18.99;35.07
